Time;durP1;ratioP1;P1;durP2;ratioP2;P2;SDS_P1;SDS_P2;PMS_P1;PMS_P2;Temp;Humidity;BMP_temperature;BMP_pressure;BME280_temperature;BME280_humidity;BME280_pressure;Samples;Min_cycle;Max_cycle;Signal;HPM_P1;HPM_P2
2022/11/22 00:00:30;;;;;;;26.35;15.55;;;;;;;1.69;83.55;98418.75;10122275;29;20119;-80
2022/11/22 00:05:33;;;;;;;24.58;14.82;;;;;;;1.77;84.21;98412.03;10129381;29;20131;-79
2022/11/22 00:10:38;;;;;;;30.70;16.45;;;;;;;1.60;85.21;98403.56;10112921;29;20049;-78
2022/11/22 00:15:40;;;;;;;28.15;16.63;;;;;;;1.73;85.76;98398.19;10107880;29;20071;-78
2022/11/22 00:20:43;;;;;;;32.92;17.58;;;;;;;1.83;85.85;98383.28;10116532;29;20124;-78
2022/11/22 00:25:47;;;;;;;29.83;17.42;;;;;;;1.83;85.88;98379.78;10126039;29;20040;-77
2022/11/22 00:30:51;;;;;;;31.02;16.92;;;;;;;1.82;85.73;98371.00;10114818;29;20097;-78
2022/11/22 00:35:54;;;;;;;28.08;16.95;;;;;;;1.81;86.03;98360.53;10086566;29;20049;-78
2022/11/22 00:40:58;;;;;;;28.60;15.35;;;;;;;1.95;85.80;98357.69;10125111;29;20123;-78
2022/11/22 00:46:01;;;;;;;31.05;14.68;;;;;;;2.01;85.79;98345.75;10117851;29;20048;-77
2022/11/22 00:51:04;;;;;;;27.67;14.90;;;;;;;1.88;85.97;98336.13;10120969;29;20764;-77
2022/11/22 00:56:09;;;;;;;22.90;14.02;;;;;;;2.01;85.63;98333.38;10117850;29;20059;-77
2022/11/22 01:01:12;;;;;;;25.30;14.73;;;;;;;2.10;85.63;98342.38;10108331;29;20053;-77
2022/11/22 01:06:15;;;;;;;25.92;13.85;;;;;;;2.22;85.65;98330.81;10125137;29;20047;-78
2022/11/22 01:11:19;;;;;;;23.85;13.95;;;;;;;2.21;85.38;98328.31;10102089;29;20053;-77
2022/11/22 01:16:22;;;;;;;24.25;14.07;;;;;;;2.21;85.60;98321.19;10105056;29;20049;-77
2022/11/22 01:21:25;;;;;;;28.17;14.98;;;;;;;2.18;85.56;98302.91;10117890;29;20523;-76
2022/11/22 01:26:29;;;;;;;22.05;13.48;;;;;;;2.17;85.86;98298.56;10106058;29;20074;-78
2022/11/22 01:31:32;;;;;;;22.70;14.23;;;;;;;2.15;85.41;98290.75;10097852;29;20045;-78
2022/11/22 01:36:34;;;;;;;38.30;15.52;;;;;;;2.17;86.17;98290.63;10103435;29;20128;-76
2022/11/22 01:41:39;;;;;;;28.52;15.18;;;;;;;2.26;85.91;98263.38;10110712;29;20143;-77
2022/11/22 01:46:42;;;;;;;22.73;14.13;;;;;;;2.16;85.89;98267.75;10117171;29;20037;-78
2022/11/22 01:51:50;;;;;;;26.20;13.52;;;;;;;2.17;85.83;98272.09;10124030;29;20044;-79
2022/11/22 01:56:57;;;;;;;21.25;13.18;;;;;;;2.20;85.87;98285.09;10131033;29;20083;-78
2022/11/22 02:02:02;;;;;;;20.48;13.32;;;;;;;2.18;85.77;98287.00;10122537;29;20072;-78
2022/11/22 02:07:10;;;;;;;27.15;13.20;;;;;;;2.30;85.82;98286.00;10111728;29;20065;-77
2022/11/22 02:12:17;;;;;;;21.35;12.13;;;;;;;2.25;85.70;98288.22;10121891;29;20055;-77
2022/11/22 02:17:20;;;;;;;20.52;12.70;;;;;;;2.38;85.16;98288.03;10148021;29;20143;-78
2022/11/22 02:22:31;;;;;;;24.23;13.30;;;;;;;2.32;85.13;98283.25;10121110;29;20124;-77
2022/11/22 02:27:35;;;;;;;22.08;10.50;;;;;;;2.16;85.66;98284.47;10116491;29;20052;-77
2022/11/22 02:32:38;;;;;;;22.42;12.43;;;;;;;2.41;85.34;98282.50;10121380;29;20116;-79
2022/11/22 02:37:40;;;;;;;20.08;11.98;;;;;;;2.45;84.69;98267.22;10123936;29;20694;-79
2022/11/22 02:42:50;;;;;;;24.02;12.90;;;;;;;2.51;84.96;98282.59;10125737;29;20155;-78
2022/11/22 02:47:53;;;;;;;20.73;12.73;;;;;;;2.34;84.76;98276.03;10113974;29;20083;-77
2022/11/22 02:52:56;;;;;;;20.38;11.80;;;;;;;2.50;84.70;98291.53;10109642;29;20049;-79
2022/11/22 02:58:00;;;;;;;17.55;10.70;;;;;;;2.64;84.58;98266.59;10122239;29;20057;-78
2022/11/22 03:03:03;;;;;;;21.40;11.68;;;;;;;2.60;84.62;98271.28;10106279;29;20119;-78
2022/11/22 03:08:06;;;;;;;20.45;9.65;;;;;;;2.48;84.87;98275.75;10130612;29;20083;-77
2022/11/22 03:13:10;;;;;;;26.85;12.15;;;;;;;2.53;85.09;98270.94;10113712;29;20049;-78
2022/11/22 03:18:13;;;;;;;18.15;11.65;;;;;;;2.52;84.88;98271.88;10131537;29;20072;-77
2022/11/22 03:23:16;;;;;;;21.45;13.23;;;;;;;2.65;85.32;98271.75;10125606;29;20057;-78
2022/11/22 03:28:20;;;;;;;24.98;14.00;;;;;;;2.70;85.43;98279.34;10131760;29;20099;-78
2022/11/22 03:33:22;;;;;;;24.20;13.98;;;;;;;2.68;85.85;98282.09;10123868;29;20124;-78
2022/11/22 03:38:25;;;;;;;26.00;13.38;;;;;;;2.73;86.12;98282.56;10136203;29;20049;-78
2022/11/22 03:43:29;;;;;;;23.50;13.48;;;;;;;2.72;86.30;98285.38;10128374;29;20754;-78
2022/11/22 03:48:33;;;;;;;22.20;12.38;;;;;;;2.76;86.41;98290.25;10164305;29;20059;-78
2022/11/22 03:53:36;;;;;;;23.77;12.98;;;;;;;2.77;86.50;98296.41;10154694;23;20045;-80
2022/11/22 03:58:41;;;;;;;21.75;13.70;;;;;;;2.77;86.57;98299.06;10159112;29;20072;-82
2022/11/22 04:03:43;;;;;;;21.75;12.75;;;;;;;2.79;86.74;98300.63;10144502;29;20091;-83
2022/11/22 04:08:46;;;;;;;23.52;13.95;;;;;;;2.81;86.86;98300.50;10131542;29;20521;-83
2022/11/22 04:19:11;;;;;;;24.20;12.70;;;;;;;2.87;87.45;98294.69;10099374;29;20510;-82
2022/11/22 04:29:35;;;;;;;27.13;13.27;;;;;;;2.84;87.99;98295.78;10166470;29;20462;-81
2022/11/22 04:34:38;;;;;;;24.92;14.30;;;;;;;2.91;88.07;98303.22;10160487;29;20437;-83
2022/11/22 04:39:41;;;;;;;22.67;12.90;;;;;;;3.00;87.83;98310.44;10129407;29;20045;-82
2022/11/22 04:44:45;;;;;;;20.15;12.45;;;;;;;3.06;88.08;98320.53;10134777;29;20052;-83
2022/11/22 04:49:48;;;;;;;21.48;13.43;;;;;;;3.11;88.11;98330.78;10130761;29;20518;-82
2022/11/22 04:54:51;;;;;;;21.40;13.20;;;;;;;3.01;88.32;98328.88;10125168;29;20077;-82
2022/11/22 04:59:55;;;;;;;20.15;12.27;;;;;;;2.94;88.94;98356.88;10110046;29;20438;-82
2022/11/22 05:04:58;;;;;;;23.33;13.10;;;;;;;3.01;88.79;98328.88;10152964;29;20071;-81
2022/11/22 05:10:00;;;;;;;21.80;14.52;;;;;;;2.96;88.82;98335.50;10148866;29;20564;-81
2022/11/22 05:15:06;;;;;;;32.42;14.57;;;;;;;3.00;89.32;98335.16;10134572;29;20069;-82
2022/11/22 05:20:10;;;;;;;23.05;12.85;;;;;;;3.17;88.65;98344.34;10151140;29;20051;-81
2022/11/22 05:25:13;;;;;;;20.00;12.63;;;;;;;3.26;88.50;98342.75;10127495;29;20430;-81
2022/11/22 05:30:18;;;;;;;18.05;11.02;;;;;;;3.33;88.90;98351.06;10122473;29;20073;-80
2022/11/22 05:35:21;;;;;;;21.60;12.02;;;;;;;3.30;88.79;98346.00;10115121;29;20037;-80
2022/11/22 05:40:24;;;;;;;18.33;11.63;;;;;;;3.39;88.68;98351.38;10108855;29;20045;-81
2022/11/22 05:45:28;;;;;;;14.43;9.98;;;;;;;3.52;88.81;98347.72;10133813;29;20059;-81
2022/11/22 05:50:31;;;;;;;18.02;9.02;;;;;;;3.57;88.80;98345.50;10128755;29;20128;-81
2022/11/22 05:55:34;;;;;;;14.20;8.48;;;;;;;3.58;88.60;98345.38;10120700;29;20095;-81
2022/11/22 06:00:38;;;;;;;13.35;7.57;;;;;;;3.60;88.52;98347.91;10133125;29;20147;-79
2022/11/22 06:05:41;;;;;;;10.88;7.30;;;;;;;3.64;88.61;98351.97;10128993;29;20399;-79
2022/11/22 06:10:44;;;;;;;14.05;7.80;;;;;;;3.62;88.49;98340.63;10104069;29;20076;-81
2022/11/22 06:15:48;;;;;;;10.70;6.75;;;;;;;3.72;88.59;98352.16;10116854;29;20250;-79
2022/11/22 06:20:50;;;;;;;12.88;6.70;;;;;;;3.65;88.44;98343.88;10109452;29;20427;-80
2022/11/22 06:25:58;;;;;;;11.95;6.13;;;;;;;3.86;88.64;98358.94;10119376;29;20048;-80
2022/11/22 06:31:03;;;;;;;6.65;4.38;;;;;;;3.92;88.18;98355.75;10099845;29;20049;-80
2022/11/22 06:36:07;;;;;;;7.20;5.32;;;;;;;3.97;88.13;98366.84;10120192;29;20160;-80
2022/11/22 06:41:12;;;;;;;9.30;4.88;;;;;;;3.99;87.58;98375.53;10125356;29;20133;-80
2022/11/22 06:46:17;;;;;;;14.68;5.20;;;;;;;4.10;87.82;98394.03;10098979;29;20431;-80
2022/11/22 06:51:22;;;;;;;5.38;3.40;;;;;;;4.18;87.86;98393.38;10122093;29;20048;-81
2022/11/22 06:56:27;;;;;;;9.90;7.10;;;;;;;4.47;87.59;98396.19;10134296;29;20096;-80
2022/11/22 07:01:33;;;;;;;6.28;2.85;;;;;;;4.62;87.49;98409.94;10117091;29;20132;-80
2022/11/22 07:06:38;;;;;;;6.07;2.92;;;;;;;4.52;86.70;98419.69;10129184;29;20075;-79
2022/11/22 07:11:41;;;;;;;4.18;3.15;;;;;;;4.63;86.38;98430.22;10128473;29;20100;-79
2022/11/22 07:16:45;;;;;;;7.75;3.17;;;;;;;4.61;86.21;98435.69;10120529;29;20516;-78
2022/11/22 07:21:48;;;;;;;6.35;2.95;;;;;;;4.59;86.16;98439.47;10136165;29;20120;-79
2022/11/22 07:26:51;;;;;;;7.28;3.08;;;;;;;4.60;86.27;98439.31;10129464;29;20490;-80
2022/11/22 07:31:55;;;;;;;7.53;3.35;;;;;;;4.55;85.64;98432.72;10112584;29;20076;-80
2022/11/22 07:36:58;;;;;;;7.30;3.70;;;;;;;4.53;86.32;98438.19;10110558;29;20787;-79
2022/11/22 07:42:07;;;;;;;7.40;3.28;;;;;;;4.52;86.75;98452.44;10122873;29;20147;-79
2022/11/22 07:47:13;;;;;;;8.57;3.83;;;;;;;4.49;86.28;98451.88;10140078;29;20060;-79
2022/11/22 07:52:24;;;;;;;6.30;3.78;;;;;;;4.53;86.55;98466.59;10126698;29;20044;-79
2022/11/22 07:57:27;;;;;;;9.05;4.35;;;;;;;4.58;85.85;98456.38;10110712;29;20045;-80
2022/11/22 08:02:31;;;;;;;9.90;3.90;;;;;;;4.71;86.21;98472.97;10109892;29;20056;-80
2022/11/22 08:07:34;;;;;;;10.48;3.47;;;;;;;4.84;85.56;98478.91;10134178;29;20080;-81
2022/11/22 08:12:37;;;;;;;7.95;3.65;;;;;;;4.88;85.25;98483.94;10131927;29;20063;-80
2022/11/22 08:17:41;;;;;;;6.53;3.80;;;;;;;5.00;84.31;98481.09;10137624;29;20112;-81
2022/11/22 08:22:44;;;;;;;9.02;3.42;;;;;;;5.69;85.16;98474.06;10115430;29;20045;-79
2022/11/22 08:27:47;;;;;;;5.30;3.05;;;;;;;6.06;81.36;98479.53;10138423;29;20077;-79
2022/11/22 08:32:54;;;;;;;12.30;3.88;;;;;;;6.60;80.81;98486.00;10139034;29;20047;-81
2022/11/22 08:37:57;;;;;;;9.98;3.75;;;;;;;7.16;77.87;98478.06;10131525;29;20391;-79
2022/11/22 08:42:59;;;;;;;11.50;3.50;;;;;;;7.03;75.79;98484.59;10121545;29;20045;-80
2022/11/22 08:48:04;;;;;;;7.22;4.63;;;;;;;7.05;77.49;98487.97;10136418;29;20063;-82
2022/11/22 08:53:07;;;;;;;8.63;3.22;;;;;;;7.36;76.20;98476.13;10123217;29;20108;-80
2022/11/22 08:58:09;;;;;;;9.68;3.65;;;;;;;7.74;75.93;98488.38;10117704;29;20060;-82
2022/11/22 09:03:14;;;;;;;5.82;3.30;;;;;;;7.79;76.11;98478.09;10128878;29;20426;-81
2022/11/22 09:08:16;;;;;;;6.20;2.45;;;;;;;7.86;73.23;98487.16;10127769;29;20056;-80
2022/11/22 09:13:22;;;;;;;4.03;1.30;;;;;;;8.46;74.67;98491.00;10113210;29;20041;-80
2022/11/22 09:18:26;;;;;;;6.57;1.70;;;;;;;8.35;70.20;98486.72;10121588;29;20449;-80
2022/11/22 09:23:30;;;;;;;6.68;1.55;;;;;;;7.97;71.14;98501.28;10122358;29;20049;-81
2022/11/22 09:28:33;;;;;;;22.17;5.00;;;;;;;7.91;70.80;98513.44;10117797;29;20128;-80
2022/11/22 09:33:39;;;;;;;8.38;1.77;;;;;;;8.04;70.44;98516.56;10123811;29;20528;-79
2022/11/22 09:38:42;;;;;;;10.45;2.20;;;;;;;8.07;68.50;98508.25;10119539;29;20064;-80
2022/11/22 09:43:53;;;;;;;10.85;2.50;;;;;;;7.54;68.98;98521.56;10115815;29;20069;-80
2022/11/22 09:49:18;;;;;;;14.82;2.97;;;;;;;7.83;69.52;98516.88;10110636;29;20056;-80
2022/11/22 09:54:26;;;;;;;8.70;2.15;;;;;;;7.56;67.97;98501.72;10145096;23;20453;-76
2022/11/22 09:59:33;;;;;;;10.10;2.83;;;;;;;7.66;68.40;98517.69;10121859;29;20051;-78
2022/11/22 10:04:40;;;;;;;8.32;1.73;;;;;;;8.17;68.16;98517.03;10101810;29;20048;-78
2022/11/22 10:09:50;;;;;;;7.93;1.63;;;;;;;7.88;65.59;98519.09;10090774;29;20053;-78
2022/11/22 10:14:58;;;;;;;7.80;2.05;;;;;;;8.14;67.33;98525.31;10096278;29;20081;-78
2022/11/22 10:20:07;;;;;;;7.55;1.98;;;;;;;7.91;66.27;98526.81;10088619;29;20049;-78
2022/11/22 10:25:16;;;;;;;11.07;3.40;;;;;;;8.01;64.35;98518.69;10074618;29;20510;-78
2022/11/22 10:30:21;;;;;;;8.15;1.65;;;;;;;8.66;65.08;98521.06;10080248;29;20069;-78
2022/11/22 10:35:38;;;;;;;7.07;2.03;;;;;;;8.81;65.32;98515.00;10079150;29;20056;-78
2022/11/22 10:40:49;;;;;;;9.07;2.47;;;;;;;9.85;63.96;98505.00;10090716;29;20076;-78
2022/11/22 10:46:00;;;;;;;12.63;3.55;;;;;;;10.11;61.76;98510.22;10075444;29;20088;-79
2022/11/22 10:51:14;;;;;;;7.38;1.77;;;;;;;10.20;61.56;98514.59;10082994;29;20128;-79
2022/11/22 10:56:24;;;;;;;8.93;2.45;;;;;;;10.38;59.99;98512.56;10088317;29;20044;-79
2022/11/22 11:01:35;;;;;;;5.03;1.52;;;;;;;10.57;61.97;98516.75;10088757;29;20056;-80
2022/11/22 11:06:43;;;;;;;7.15;1.92;;;;;;;11.03;58.95;98498.19;10086427;29;20057;-80
2022/11/22 11:12:13;;;;;;;6.72;1.80;;;;;;;10.41;57.64;98486.41;10079154;29;20104;-79
2022/11/22 11:17:21;;;;;;;6.00;1.63;;;;;;;11.61;59.53;98479.97;10081748;29;20054;-79
2022/11/22 11:22:28;;;;;;;7.38;1.75;;;;;;;11.10;58.11;98503.69;10083713;29;20041;-79
2022/11/22 11:27:51;;;;;;;6.38;1.58;;;;;;;10.84;58.97;98483.31;10095149;29;20140;-78
2022/11/22 11:32:55;;;;;;;6.90;1.65;;;;;;;11.03;59.19;98487.44;10095779;29;20057;-79
2022/11/22 11:37:59;;;;;;;4.68;1.52;;;;;;;10.93;57.01;98475.22;10094113;29;20053;-79
2022/11/22 11:43:18;;;;;;;8.13;1.52;;;;;;;11.37;58.35;98472.03;10098006;29;20057;-79
2022/11/22 11:48:39;;;;;;;8.30;1.90;;;;;;;11.11;58.99;98461.53;10098258;29;20092;-79
2022/11/22 11:53:53;;;;;;;6.50;1.55;;;;;;;11.29;57.22;98462.16;10088873;29;20109;-79
2022/11/22 11:58:59;;;;;;;5.32;1.52;;;;;;;11.03;55.29;98468.63;10096278;29;20049;-79
2022/11/22 12:04:03;;;;;;;8.30;1.80;;;;;;;11.53;56.36;98458.50;10087631;29;20056;-78
2022/11/22 12:09:28;;;;;;;4.03;1.13;;;;;;;10.22;51.69;98475.00;10088902;29;20046;-78
2022/11/22 12:14:32;;;;;;;6.50;1.10;;;;;;;10.55;51.56;98480.34;10097729;29;20076;-78
2022/11/22 12:20:02;;;;;;;5.97;1.15;;;;;;;10.54;50.36;98470.63;10095594;29;20056;-78
2022/11/22 12:25:20;;;;;;;8.25;1.20;;;;;;;10.51;50.47;98469.13;10092005;29;20053;-79
2022/11/22 12:30:46;;;;;;;3.70;1.00;;;;;;;10.32;51.60;98464.13;10098364;29;20491;-79
2022/11/22 12:35:53;;;;;;;6.65;1.20;;;;;;;9.84;50.60;98473.78;10092082;29;20060;-78
2022/11/22 12:41:01;;;;;;;3.13;1.00;;;;;;;10.49;48.98;98481.03;10101459;29;20057;-79
2022/11/22 12:46:09;;;;;;;4.00;1.15;;;;;;;10.79;49.02;98468.72;10087061;29;20049;-78
2022/11/22 12:51:17;;;;;;;8.50;1.50;;;;;;;10.13;48.14;98474.19;10097335;29;20037;-79
2022/11/22 12:56:29;;;;;;;4.35;1.08;;;;;;;10.16;49.21;98481.06;10097314;29;20045;-79
2022/11/22 13:01:43;;;;;;;6.03;1.10;;;;;;;10.15;48.33;98482.91;10100497;29;20049;-79
2022/11/22 13:06:51;;;;;;;3.28;0.60;;;;;;;9.33;50.21;98489.94;10096306;29;20076;-79
2022/11/22 13:12:00;;;;;;;4.60;1.45;;;;;;;8.57;52.42;98488.91;10102066;29;20491;-79
2022/11/22 13:17:07;;;;;;;5.40;0.80;;;;;;;8.53;53.10;98500.06;10084202;29;20078;-79
2022/11/22 13:22:21;;;;;;;6.75;1.33;;;;;;;8.71;53.15;98498.19;10123462;29;20048;-79
2022/11/22 13:27:30;;;;;;;4.30;1.35;;;;;;;8.58;52.50;98497.75;10107452;29;20052;-79
2022/11/22 13:32:34;;;;;;;5.22;1.23;;;;;;;8.38;52.14;98491.75;10101036;29;20491;-79
2022/11/22 13:37:40;;;;;;;6.05;1.20;;;;;;;7.76;53.21;98506.94;10085922;29;20048;-79
2022/11/22 13:42:44;;;;;;;7.90;1.73;;;;;;;8.13;52.78;98496.91;10078765;29;20061;-79
2022/11/22 13:47:47;;;;;;;4.53;0.68;;;;;;;7.93;53.38;98492.75;10092778;29;20148;-79
2022/11/22 13:52:52;;;;;;;4.10;0.98;;;;;;;8.07;53.45;98486.84;10090916;29;20491;-79
2022/11/22 13:58:16;;;;;;;6.50;1.20;;;;;;;8.34;53.49;98485.06;10098727;29;20503;-79
2022/11/22 14:03:37;;;;;;;5.38;0.85;;;;;;;8.30;53.21;98478.31;10100740;29;20073;-78
2022/11/22 14:08:40;;;;;;;6.15;1.42;;;;;;;7.98;54.11;98477.09;10096405;29;20072;-77
2022/11/22 14:13:52;;;;;;;5.38;0.82;;;;;;;7.89;54.17;98491.34;10088589;29;20054;-79
2022/11/22 14:19:05;;;;;;;5.80;1.00;;;;;;;7.70;55.01;98484.31;10082494;29;20132;-79
2022/11/22 14:24:17;;;;;;;5.68;1.02;;;;;;;7.57;56.44;98490.06;10089282;29;20553;-79
2022/11/22 14:29:48;;;;;;;5.22;0.95;;;;;;;7.51;56.99;98493.31;10094303;29;20073;-79
2022/11/22 14:35:24;;;;;;;3.92;0.77;;;;;;;7.34;57.26;98488.78;10088091;29;20069;-78
2022/11/22 14:40:34;;;;;;;4.22;1.08;;;;;;;7.45;57.71;98485.91;10061792;29;20422;-78
2022/11/22 14:45:43;;;;;;;6.57;1.20;;;;;;;7.57;56.96;98486.53;10078216;29;20076;-79
2022/11/22 14:50:51;;;;;;;4.13;0.90;;;;;;;7.36;56.89;98497.50;10090477;29;20080;-78
2022/11/22 14:56:02;;;;;;;4.22;0.70;;;;;;;7.42;56.42;98489.72;10085203;29;20048;-79
2022/11/22 15:01:42;;;;;;;4.50;1.02;;;;;;;7.39;56.46;98487.34;10087654;29;20045;-79
2022/11/22 15:06:55;;;;;;;6.25;1.10;;;;;;;7.54;56.54;98485.00;10094290;29;20060;-79
2022/11/22 15:12:33;;;;;;;4.38;0.95;;;;;;;7.53;57.14;98493.19;10088979;29;20039;-79
2022/11/22 15:17:38;;;;;;;2.67;1.08;;;;;;;7.53;58.32;98499.34;10088725;29;20068;-78
2022/11/22 15:23:05;;;;;;;6.15;1.40;;;;;;;7.52;59.02;98507.53;10083191;29;20049;-79
2022/11/22 15:28:28;;;;;;;2.97;1.30;;;;;;;7.49;59.60;98516.69;10089302;29;20108;-79
2022/11/22 15:33:54;;;;;;;11.10;1.80;;;;;;;7.43;60.06;98502.09;10075046;29;20499;-78
2022/11/22 15:39:19;;;;;;;8.82;2.47;;;;;;;7.41;60.21;98503.25;10089770;29;20061;-79
2022/11/22 15:44:42;;;;;;;7.85;2.10;;;;;;;7.39;60.58;98507.88;10100039;29;20044;-79
2022/11/22 15:50:15;;;;;;;6.47;1.90;;;;;;;7.24;60.85;98505.72;10095244;29;20044;-78
2022/11/22 15:55:38;;;;;;;7.10;1.92;;;;;;;7.14;61.30;98520.94;10088246;29;20045;-78
2022/11/22 16:01:04;;;;;;;3.38;1.58;;;;;;;7.09;61.01;98522.38;10097027;29;20040;-79
2022/11/22 16:06:25;;;;;;;7.63;3.05;;;;;;;7.11;61.40;98531.94;10068274;29;20064;-77
2022/11/22 16:11:30;;;;;;;9.18;2.53;;;;;;;7.08;61.32;98528.72;10052395;29;20069;-78
2022/11/22 16:16:34;;;;;;;4.63;1.80;;;;;;;7.04;61.06;98525.47;10058709;29;20051;-78
2022/11/22 16:21:38;;;;;;;7.90;2.45;;;;;;;6.95;61.00;98526.38;10078424;29;20117;-77
2022/11/22 16:26:50;;;;;;;10.73;2.17;;;;;;;7.02;61.06;98530.13;10101507;29;20061;-77
2022/11/22 16:31:59;;;;;;;6.45;1.40;;;;;;;7.03;61.46;98538.00;10067106;29;20118;-77
2022/11/22 16:37:26;;;;;;;3.08;1.67;;;;;;;6.94;62.12;98538.00;10063226;29;20051;-78
2022/11/22 16:42:32;;;;;;;3.08;1.50;;;;;;;6.83;62.69;98545.22;10057288;29;20061;-78
2022/11/22 16:47:34;;;;;;;9.85;3.63;;;;;;;6.75;62.96;98541.59;10058363;29;20072;-78
2022/11/22 16:52:39;;;;;;;4.05;1.70;;;;;;;6.60;63.66;98549.19;10056913;29;20063;-79
2022/11/22 16:57:42;;;;;;;4.35;2.47;;;;;;;6.55;63.86;98554.09;10061912;29;20065;-78
2022/11/22 17:02:45;;;;;;;9.80;3.15;;;;;;;6.46;64.13;98552.31;10050093;29;20049;-80
2022/11/22 17:07:49;;;;;;;9.80;3.80;;;;;;;6.35;64.65;98556.81;10066304;29;20053;-79
2022/11/22 17:12:53;;;;;;;9.85;2.60;;;;;;;6.16;65.31;98554.97;10056501;29;20053;-78
2022/11/22 17:17:55;;;;;;;7.15;2.72;;;;;;;6.25;65.41;98561.28;10050942;29;20053;-79
2022/11/22 17:23:00;;;;;;;8.43;2.97;;;;;;;6.07;66.04;98565.66;10045729;29;20049;-79
2022/11/22 17:28:03;;;;;;;15.88;4.10;;;;;;;6.03;66.40;98565.06;10056164;29;20149;-79
2022/11/22 17:33:05;;;;;;;10.88;4.70;;;;;;;6.13;66.14;98567.75;10046825;29;20136;-79
2022/11/22 17:38:11;;;;;;;11.48;4.13;;;;;;;6.06;66.21;98575.50;10052477;29;20057;-79
2022/11/22 17:43:13;;;;;;;8.32;3.30;;;;;;;6.14;66.01;98570.31;10053218;29;20496;-79
2022/11/22 17:48:17;;;;;;;10.05;3.60;;;;;;;6.12;66.13;98577.59;10051948;29;20057;-79
2022/11/22 17:53:21;;;;;;;6.68;3.00;;;;;;;6.08;66.03;98570.84;10049708;29;20064;-79
2022/11/22 17:58:23;;;;;;;8.70;2.92;;;;;;;6.21;65.98;98581.22;10055338;29;20069;-79
2022/11/22 18:03:26;;;;;;;14.00;5.95;;;;;;;6.26;65.90;98572.81;10050842;29;20113;-79
2022/11/22 18:08:30;;;;;;;8.60;3.83;;;;;;;6.23;65.94;98576.63;10052180;29;20045;-79
2022/11/22 18:13:35;;;;;;;9.43;3.72;;;;;;;6.14;66.16;98583.63;10051142;29;20053;-79
2022/11/22 18:18:38;;;;;;;13.43;4.97;;;;;;;6.31;65.94;98589.25;10048267;29;20151;-79
2022/11/22 18:24:01;;;;;;;8.68;3.70;;;;;;;6.13;66.45;98594.41;10055351;29;20684;-79
2022/11/22 18:29:04;;;;;;;7.28;3.17;;;;;;;6.17;66.48;98593.13;10053096;29;20056;-79
2022/11/22 18:34:28;;;;;;;6.28;2.78;;;;;;;6.22;66.67;98596.25;10057346;29;20056;-79
2022/11/22 18:39:33;;;;;;;8.23;3.40;;;;;;;6.17;66.99;98587.81;10058565;29;20055;-79
2022/11/22 18:44:38;;;;;;;5.55;2.58;;;;;;;6.21;66.86;98593.72;10055562;29;20053;-78
2022/11/22 18:49:40;;;;;;;9.00;3.60;;;;;;;6.18;67.11;98600.19;10057696;29;20064;-79
2022/11/22 18:54:45;;;;;;;10.70;3.17;;;;;;;6.31;66.96;98598.06;10052537;29;20578;-79
2022/11/22 18:59:48;;;;;;;10.63;3.75;;;;;;;6.35;66.95;98595.97;10048378;29;20065;-78
2022/11/22 19:04:52;;;;;;;8.57;3.55;;;;;;;6.14;67.72;98594.28;10034047;29;20049;-78
2022/11/22 19:09:57;;;;;;;3.85;3.13;;;;;;;6.16;67.61;98586.97;10046226;29;20052;-78
2022/11/22 19:15:00;;;;;;;8.25;3.15;;;;;;;6.28;67.47;98590.38;10043090;29;20049;-77
2022/11/22 19:20:04;;;;;;;7.70;3.08;;;;;;;6.35;67.40;98590.63;10049621;29;20053;-79
2022/11/22 19:25:09;;;;;;;8.73;2.70;;;;;;;6.25;67.70;98587.13;10032551;29;20103;-79
2022/11/22 19:30:13;;;;;;;6.82;2.72;;;;;;;6.33;67.58;98590.75;10040713;29;20521;-79
2022/11/22 19:35:16;;;;;;;5.30;3.25;;;;;;;6.21;68.20;98594.56;10043938;29;21623;-79
2022/11/22 19:40:20;;;;;;;7.18;2.20;;;;;;;6.26;68.01;98594.16;10044278;29;20148;-80
2022/11/22 19:45:23;;;;;;;5.97;3.00;;;;;;;6.24;68.10;98594.28;10043400;29;20132;-77
2022/11/22 19:50:26;;;;;;;8.15;3.20;;;;;;;6.31;68.33;98594.56;10055463;29;20048;-80
2022/11/22 19:55:30;;;;;;;8.20;3.00;;;;;;;6.27;68.41;98595.81;10057192;29;20060;-79
2022/11/22 20:00:33;;;;;;;4.05;2.45;;;;;;;6.19;68.73;98599.19;10061674;29;20052;-78
2022/11/22 20:05:35;;;;;;;5.88;2.30;;;;;;;6.28;68.41;98597.50;10050667;29;20534;-79
2022/11/22 20:10:39;;;;;;;5.53;2.80;;;;;;;6.18;68.66;98600.19;10056181;29;20053;-79
2022/11/22 20:15:42;;;;;;;3.90;2.63;;;;;;;6.08;68.84;98594.00;10060135;29;20049;-77
2022/11/22 20:20:45;;;;;;;;;;;;;;;6.07;69.33;98593.16;10061817;29;20056;-79
2022/11/22 20:25:49;;;;;;;5.32;2.70;;;;;;;6.12;69.26;98609.56;10061998;29;19928;-79
2022/11/22 20:30:52;;;;;;;3.83;2.58;;;;;;;6.07;69.36;98600.31;10057600;29;20049;-78
2022/11/22 20:36:01;;;;;;;6.10;2.55;;;;;;;6.18;69.21;98610.84;10057349;29;20516;-79
2022/11/22 20:41:06;;;;;;;3.95;2.30;;;;;;;6.21;68.99;98621.22;10051651;29;20053;-79
2022/11/22 20:46:11;;;;;;;2.45;1.80;;;;;;;6.29;68.76;98612.53;10058314;29;20518;-79
2022/11/22 20:51:16;;;;;;;7.68;2.20;;;;;;;6.30;68.68;98609.72;10059637;29;20060;-79
2022/11/22 20:56:20;;;;;;;1.75;1.10;;;;;;;6.22;68.75;98612.22;10062289;29;20057;-79
2022/11/22 21:01:25;;;;;;;2.72;1.13;;;;;;;6.16;68.84;98616.31;10061838;29;20041;-79
2022/11/22 21:06:28;;;;;;;2.35;0.77;;;;;;;6.13;68.84;98607.75;10058180;29;20067;-79
2022/11/22 21:11:33;;;;;;;1.00;0.80;;;;;;;6.29;68.53;98613.38;10050547;29;20055;-79
2022/11/22 21:16:36;;;;;;;1.67;0.85;;;;;;;6.23;68.71;98621.94;10065052;29;20132;-79
2022/11/22 21:21:39;;;;;;;0.98;0.88;;;;;;;6.10;69.31;98621.34;10062299;29;20071;-79
2022/11/22 21:26:43;;;;;;;1.27;0.73;;;;;;;6.28;68.72;98619.69;10056825;29;20059;-79
2022/11/22 21:31:46;;;;;;;1.63;0.80;;;;;;;6.00;69.82;98631.16;10052969;29;20400;-79
2022/11/22 21:36:49;;;;;;;1.33;0.95;;;;;;;6.08;71.58;98628.63;10048095;29;20052;-78
2022/11/22 21:41:53;;;;;;;1.08;0.80;;;;;;;5.98;72.17;98631.31;10052894;29;20065;-79
2022/11/22 21:46:56;;;;;;;1.10;1.00;;;;;;;5.89;72.40;98645.44;10088814;29;20061;-78
2022/11/22 21:51:59;;;;;;;1.98;0.70;;;;;;;6.09;72.27;98641.00;10100152;29;20069;-79
2022/11/22 21:57:03;;;;;;;1.25;0.93;;;;;;;6.18;72.22;98640.16;10089024;29;20131;-79
2022/11/22 22:02:06;;;;;;;0.80;0.70;;;;;;;6.20;72.01;98646.22;10084184;29;20037;-79
2022/11/22 22:07:09;;;;;;;1.73;0.93;;;;;;;6.22;72.69;98651.38;10085364;29;20049;-79
2022/11/22 22:12:34;;;;;;;3.30;1.20;;;;;;;6.12;73.59;98646.91;10137483;23;20165;-80
2022/11/22 22:17:36;;;;;;;1.55;1.00;;;;;;;6.03;75.08;98636.22;10124688;29;20521;-77
2022/11/22 22:22:39;;;;;;;2.55;0.70;;;;;;;6.04;75.33;98637.91;10142257;29;20044;-77
2022/11/22 22:27:44;;;;;;;1.25;0.70;;;;;;;6.07;75.50;98638.47;10096705;29;20120;-77
2022/11/22 22:32:47;;;;;;;1.00;0.90;;;;;;;6.12;75.10;98649.56;10101934;29;20139;-77
2022/11/22 22:37:50;;;;;;;0.73;0.47;;;;;;;6.11;74.49;98653.19;10107904;29;20049;-77
2022/11/22 22:42:54;;;;;;;1.42;0.90;;;;;;;6.22;73.93;98657.56;10122805;29;20051;-77
2022/11/22 22:47:58;;;;;;;1.45;0.80;;;;;;;6.35;73.74;98660.81;10103245;29;20075;-77
2022/11/22 22:53:01;;;;;;;1.00;0.77;;;;;;;6.47;73.16;98663.31;10114031;29;20080;-77
2022/11/22 22:58:05;;;;;;;2.25;1.05;;;;;;;6.50;72.87;98665.72;10107421;29;20067;-77
2022/11/22 23:03:11;;;;;;;1.73;0.98;;;;;;;6.45;72.95;98665.31;10122444;29;20052;-78
2022/11/22 23:08:13;;;;;;;1.30;1.00;;;;;;;6.36;73.21;98666.97;10128609;29;20048;-78
2022/11/22 23:13:18;;;;;;;8.02;3.75;;;;;;;6.32;73.05;98669.09;10106817;29;20037;-78
2022/11/22 23:18:20;;;;;;;18.38;5.10;;;;;;;6.52;72.73;98677.94;10122632;29;20096;-77
2022/11/22 23:23:23;;;;;;;1.33;1.23;;;;;;;6.40;72.92;98676.41;10135289;29;20037;-78
2022/11/22 23:28:28;;;;;;;1.80;1.13;;;;;;;6.48;72.82;98675.72;10121167;29;20084;-78
2022/11/22 23:33:31;;;;;;;0.85;0.80;;;;;;;6.51;72.40;98683.41;10120520;29;20088;-77
2022/11/22 23:38:34;;;;;;;0.93;0.93;;;;;;;6.49;72.43;98683.56;10122922;29;20068;-78
2022/11/22 23:43:39;;;;;;;1.35;1.00;;;;;;;6.58;72.37;98679.19;10139040;29;20466;-77
2022/11/22 23:48:42;;;;;;;5.05;2.10;;;;;;;6.57;72.24;98681.03;10146483;29;20053;-77
2022/11/22 23:53:44;;;;;;;4.20;3.03;;;;;;;6.55;72.08;98680.31;10123009;29;20104;-78
2022/11/22 23:58:49;;;;;;;3.97;0.90;;;;;;;6.46;72.18;98683.84;10127018;29;20127;-78
